Startpagina
METAR-TAF:

METAR-TAF

Vliegvelden :

Productieplatform

Hoorn-a, Nederland

breedte: 52-55-05N, lengte: 4-09-01E, hoogte: 41 m

Actueel weer

Dit bericht is 33 minuten geleden gemaakt, om 00:55 UTC
Wind 17 kt uit het noordwesten
Temperatuur 14°C
Vochtigheid 63%
Druk 1026 hPa
Zicht 10 km of meer

METAR: EHQE 180055Z AUTO 31017KT 9999 VV/// //////CB 14/07 Q1026 W///H///

Tijdstip: 03:28 (01:28 UTC)


TAF: ontbreekt

Waarnemingen en weersverwachtingen van meer dan 4000 vliegvelden (METAR en TAF).

De beschikbare stations zijn de gele en rode punten op de kaart.

Ga met uw muis naar het station om de naam te zien.

Klik dan om waarnemingen en weersverwachtingen te zien.

kaart wijzigen: klik op de groene knoppen met een zwart kruis om in te zoomen, op de groene knop met een streepje om uit te zoomen of op de groene pijlen voor aangrenzende kaarten.


METAR-TAF: